Time,TemperatureF,DewpointF,PressureIn,WindDirection,WindDirectionDegrees,WindSpeedMPH,WindSpeedGustMPH,Humidity,HourlyPrecipIn,Conditions,Clouds,dailyrainin,SoftwareType,DateUTC
2013-05-17 00:03:00,70.0,63.0,29.95,South,174,5.0,6.0,78,0.00,,,0.01,,2013-05-17 05:03:00,
2013-05-17 00:14:00,70.0,63.0,29.95,South,174,5.0,6.0,78,0.00,,,0.01,,2013-05-17 05:14:00,
2013-05-17 00:22:00,70.0,63.0,29.96,SSE,166,5.0,7.0,79,0.00,,,0.01,,2013-05-17 05:22:00,
2013-05-17 00:32:00,70.0,62.0,29.95,South,186,6.0,9.0,77,0.00,,,0.01,,2013-05-17 05:32:00,
2013-05-17 00:42:00,70.0,62.0,29.95,South,186,6.0,9.0,77,0.00,,,0.01,,2013-05-17 05:42:00,
2013-05-17 00:52:00,70.0,62.0,29.95,South,178,7.0,10.0,76,0.00,,,0.01,,2013-05-17 05:52:00,
2013-05-17 01:02:00,69.0,61.0,29.95,South,184,6.0,9.0,75,0.00,,,0.01,,2013-05-17 06:02:00,
2013-05-17 01:11:00,69.0,61.0,29.95,South,184,6.0,9.0,75,0.00,,,0.01,,2013-05-17 06:11:00,
2013-05-17 01:21:00,69.0,61.0,29.95,SSW,194,4.0,7.0,76,0.00,,,0.01,,2013-05-17 06:21:00,
2013-05-17 01:32:00,68.0,61.0,29.95,SSE,167,2.0,5.0,77,0.00,,,0.01,,2013-05-17 06:32:00,
2013-05-17 01:42:00,68.0,61.0,29.95,SSE,167,2.0,5.0,77,0.00,,,0.01,,2013-05-17 06:42:00,
2013-05-17 01:52:00,67.0,59.0,29.95,South,176,0.0,3.0,76,0.00,,,0.01,,2013-05-17 06:52:00,
2013-05-17 02:02:00,67.0,60.0,29.95,South,176,0.0,0.0,77,0.00,,,0.01,,2013-05-17 07:02:00,
2013-05-17 02:11:00,67.0,60.0,29.95,South,176,0.0,0.0,77,0.00,,,0.01,,2013-05-17 07:11:00,
2013-05-17 02:21:00,67.0,60.0,29.95,South,176,0.0,0.0,78,0.00,,,0.01,,2013-05-17 07:21:00,
2013-05-17 02:32:00,66.0,59.0,29.95,WSW,237,0.0,3.0,79,0.00,,,0.01,,2013-05-17 07:32:00,
2013-05-17 02:43:00,66.0,59.0,29.95,WSW,237,0.0,3.0,79,0.00,,,0.01,,2013-05-17 07:43:00,
2013-05-17 02:53:00,66.0,60.0,29.95,WSW,237,0.0,0.0,80,0.00,,,0.01,,2013-05-17 07:53:00,
2013-05-17 03:02:00,64.0,59.0,29.95,NE,44,3.0,6.0,83,0.00,,,0.01,,2013-05-17 08:02:00,
2013-05-17 03:12:00,64.0,59.0,29.95,NE,44,3.0,6.0,83,0.00,,,0.01,,2013-05-17 08:12:00,
2013-05-17 03:23:00,63.0,58.0,29.95,NE,49,0.0,5.0,84,0.00,,,0.01,,2013-05-17 08:23:00,
2013-05-17 03:33:00,62.0,58.0,29.96,East,86,5.0,6.0,86,0.00,,,0.01,,2013-05-17 08:33:00,
2013-05-17 03:42:00,62.0,58.0,29.96,East,86,5.0,6.0,86,0.00,,,0.01,,2013-05-17 08:42:00,
2013-05-17 03:51:00,62.0,58.0,29.96,East,94,6.0,9.0,88,0.00,,,0.01,,2013-05-17 08:51:00,
2013-05-17 04:02:00,61.0,57.0,29.96,East,79,3.0,8.0,88,0.00,,,0.01,,2013-05-17 09:02:00,
2013-05-17 04:12:00,61.0,57.0,29.96,East,79,3.0,8.0,88,0.00,,,0.01,,2013-05-17 09:12:00,
2013-05-17 04:22:00,61.0,58.0,29.96,ESE,111,4.0,6.0,89,0.00,,,0.01,,2013-05-17 09:22:00,
2013-05-17 04:33:00,61.0,58.0,29.96,South,177,2.0,7.0,89,0.00,,,0.01,,2013-05-17 09:33:00,
2013-05-17 04:42:00,61.0,58.0,29.96,South,177,2.0,7.0,89,0.00,,,0.01,,2013-05-17 09:42:00,
2013-05-17 04:53:00,61.0,57.0,29.96,ESE,117,0.0,5.0,88,0.00,,,0.01,,2013-05-17 09:53:00,
2013-05-17 05:03:00,61.0,58.0,29.97,East,88,7.0,9.0,89,0.00,,,0.01,,2013-05-17 10:03:00,
2013-05-17 05:12:00,61.0,58.0,29.97,East,88,7.0,9.0,89,0.00,,,0.01,,2013-05-17 10:12:00,
2013-05-17 05:23:00,60.0,57.0,29.97,East,86,5.0,10.0,90,0.00,,,0.00,,2013-05-17 10:23:00,
2013-05-17 05:33:00,60.0,58.0,29.97,East,81,3.0,7.0,92,0.00,,,0.00,,2013-05-17 10:33:00,
2013-05-17 05:42:00,60.0,58.0,29.97,East,81,3.0,7.0,92,0.00,,,0.00,,2013-05-17 10:42:00,
2013-05-17 05:53:00,60.0,58.0,29.97,East,80,1.0,7.0,92,0.00,,,0.00,,2013-05-17 10:53:00,
2013-05-17 06:02:00,60.0,58.0,29.98,ESE,102,2.0,6.0,93,0.00,,,0.00,,2013-05-17 11:02:00,
2013-05-17 06:12:00,60.0,58.0,29.98,ESE,102,2.0,6.0,93,0.00,,,0.00,,2013-05-17 11:12:00,
2013-05-17 06:22:00,59.0,57.0,29.98,East,93,2.0,6.0,94,0.00,,,0.00,,2013-05-17 11:22:00,
2013-05-17 06:34:00,60.0,58.0,29.99,ESE,121,0.0,3.0,94,0.00,,,0.00,,2013-05-17 11:34:00,
2013-05-17 06:42:00,60.0,58.0,29.99,ESE,121,0.0,3.0,94,0.00,,,0.00,,2013-05-17 11:42:00,
2013-05-17 06:53:00,60.0,58.0,30.00,SSE,166,2.0,5.0,94,0.00,,,0.00,,2013-05-17 11:53:00,
2013-05-17 07:03:00,61.0,59.0,30.00,SE,134,0.0,3.0,94,0.00,,,0.00,,2013-05-17 12:03:00,
2013-05-17 07:12:00,61.0,59.0,30.00,SE,134,0.0,3.0,94,0.00,,,0.00,,2013-05-17 12:12:00,
2013-05-17 07:23:00,61.0,59.0,30.00,SE,134,0.0,0.0,93,0.00,,,0.00,,2013-05-17 12:23:00,
2013-05-17 07:32:00,63.0,60.0,30.01,ESE,108,2.0,5.0,91,0.00,,,0.00,,2013-05-17 12:32:00,
2013-05-17 07:43:00,63.0,60.0,30.01,ESE,108,2.0,5.0,91,0.00,,,0.00,,2013-05-17 12:43:00,
2013-05-17 07:53:00,64.0,60.0,30.01,SSE,157,6.0,7.0,88,0.00,,,0.00,,2013-05-17 12:53:00,
2013-05-17 08:03:00,66.0,61.0,30.01,SSE,160,6.0,8.0,84,0.00,,,0.00,,2013-05-17 13:03:00,
2013-05-17 08:12:00,66.0,61.0,30.01,SSE,160,6.0,8.0,84,0.00,,,0.00,,2013-05-17 13:12:00,
2013-05-17 08:23:00,67.0,61.0,30.01,South,174,6.0,8.0,80,0.00,,,0.00,,2013-05-17 13:23:00,
2013-05-17 08:33:00,71.0,62.0,30.01,SE,144,8.0,10.0,72,0.00,,,0.00,,2013-05-17 13:33:00,
2013-05-17 08:42:00,71.0,62.0,30.01,SE,144,8.0,10.0,72,0.00,,,0.00,,2013-05-17 13:42:00,
2013-05-17 08:52:00,72.0,61.0,30.01,SE,140,10.0,14.0,68,0.00,,,0.00,,2013-05-17 13:52:00,
2013-05-17 09:02:00,74.0,59.0,30.00,SE,140,9.0,12.0,59,0.00,,,0.00,,2013-05-17 14:02:00,
2013-05-17 09:13:00,74.0,59.0,30.00,SE,140,9.0,12.0,59,0.00,,,0.00,,2013-05-17 14:13:00,
2013-05-17 09:22:00,75.0,59.0,30.00,SE,131,9.0,13.0,57,0.00,,,0.00,,2013-05-17 14:22:00,
2013-05-17 09:34:00,75.0,59.0,30.00,SE,131,9.0,14.0,58,0.00,,,0.00,,2013-05-17 14:34:00,
2013-05-17 09:43:00,75.0,59.0,30.00,SE,131,9.0,14.0,58,0.00,,,0.00,,2013-05-17 14:43:00,
2013-05-17 09:53:00,76.0,60.0,30.00,ESE,117,7.0,14.0,58,0.00,,,0.00,,2013-05-17 14:53:00,
2013-05-17 10:03:00,77.0,60.0,30.00,East,97,6.0,16.0,56,0.00,,,0.00,,2013-05-17 15:03:00,
2013-05-17 10:14:00,77.0,60.0,30.00,East,97,6.0,16.0,56,0.00,,,0.00,,2013-05-17 15:14:00,
2013-05-17 10:25:00,78.0,61.0,30.00,SE,130,11.0,15.0,55,0.00,,,0.00,,2013-05-17 15:25:00,
2013-05-17 10:37:00,78.0,60.0,30.00,SSE,153,12.0,20.0,54,0.00,,,0.00,,2013-05-17 15:37:00,
2013-05-17 10:47:00,78.0,60.0,30.00,SSE,153,12.0,20.0,54,0.00,,,0.00,,2013-05-17 15:47:00,
2013-05-17 10:56:00,78.0,60.0,29.99,ESE,116,11.0,18.0,54,0.00,,,0.00,,2013-05-17 15:56:00,
2013-05-17 11:07:00,78.0,60.0,30.00,SE,130,10.0,17.0,54,0.00,,,0.00,,2013-05-17 16:07:00,
2013-05-17 11:13:00,78.0,60.0,30.00,SE,130,10.0,17.0,54,0.00,,,0.00,,2013-05-17 16:13:00,
2013-05-17 11:26:00,78.0,60.0,30.00,ESE,117,17.0,25.0,54,0.00,,,0.00,,2013-05-17 16:26:00,
2013-05-17 11:37:00,79.0,61.0,30.00,ESE,115,14.0,24.0,54,0.00,,,0.00,,2013-05-17 16:37:00,
2013-05-17 11:49:00,79.0,61.0,30.00,ESE,115,14.0,24.0,54,0.00,,,0.00,,2013-05-17 16:49:00,
2013-05-17 11:56:00,78.0,60.0,30.00,ESE,108,16.0,24.0,54,0.00,,,0.00,,2013-05-17 16:56:00,
2013-05-17 12:08:00,78.0,61.0,30.00,SSE,148,16.0,25.0,56,0.00,,,0.00,,2013-05-17 17:08:00,
2013-05-17 12:18:00,78.0,61.0,30.00,SSE,148,16.0,25.0,56,0.00,,,0.00,,2013-05-17 17:18:00,
2013-05-17 12:30:00,78.0,61.0,29.99,SE,126,15.0,25.0,56,0.00,,,0.00,,2013-05-17 17:30:00,
2013-05-17 12:40:00,78.0,-99.9,29.99,SSE,148,13.0,22.0,58,0.00,,,0.00,,2013-05-17 17:40:00,
2013-05-17 12:49:00,78.0,62.0,29.99,SSE,148,13.0,22.0,58,0.00,,,0.00,,2013-05-17 17:49:00,
2013-05-17 13:00:00,78.0,62.0,29.99,SE,140,13.0,24.0,59,0.00,,,0.00,,2013-05-17 18:00:00,
2013-05-17 13:09:00,76.0,61.0,29.99,ESE,105,16.0,25.0,59,0.00,,,0.00,,2013-05-17 18:09:00,
2013-05-17 13:20:00,76.0,61.0,29.99,ESE,105,16.0,25.0,59,0.00,,,0.00,,2013-05-17 18:20:00,
2013-05-17 13:30:00,77.0,62.0,29.99,ESE,106,13.0,24.0,59,0.00,,,0.00,,2013-05-17 18:30:00,
2013-05-17 13:40:00,77.0,-99.9,29.98,East,95,12.0,17.0,61,0.00,,,0.00,,2013-05-17 18:40:00,
2013-05-17 13:50:00,-999.0,-99.9,29.98,East,95,12.0,17.0,61,0.00,,,0.00,,2013-05-17 18:50:00,
2013-05-17 14:00:00,77.0,62.0,29.98,ESE,108,10.0,17.0,60,0.00,,,0.00,,2013-05-17 19:00:00,
2013-05-17 14:10:00,78.0,62.0,29.98,South,169,15.0,21.0,57,0.00,,,0.00,,2013-05-17 19:10:00,
2013-05-17 14:20:00,78.0,62.0,29.98,South,169,15.0,21.0,57,0.00,,,0.00,,2013-05-17 19:20:00,
2013-05-17 14:30:00,78.0,62.0,29.98,SSE,152,13.0,22.0,57,0.00,,,0.00,,2013-05-17 19:30:00,
2013-05-17 14:40:00,77.0,61.0,29.98,SE,133,16.0,25.0,58,0.00,,,0.00,,2013-05-17 19:40:00,
2013-05-17 14:50:00,77.0,61.0,29.98,SE,133,16.0,25.0,58,0.00,,,0.00,,2013-05-17 19:50:00,
2013-05-17 15:00:00,77.0,-99.9,29.98,ESE,116,12.0,22.0,59,0.00,,,0.00,,2013-05-17 20:00:00,
2013-05-17 15:09:00,80.0,62.0,29.97,SSE,150,17.0,23.0,54,0.00,,,0.00,,2013-05-17 20:09:00,
2013-05-17 15:20:00,80.0,62.0,29.97,SSE,150,17.0,23.0,54,0.00,,,0.00,,2013-05-17 20:20:00,
2013-05-17 15:30:00,80.0,62.0,29.96,SSE,156,13.0,21.0,54,0.00,,,0.00,,2013-05-17 20:30:00,
2013-05-17 15:40:00,81.0,60.0,29.96,SE,130,16.0,23.0,49,0.00,,,0.00,,2013-05-17 20:40:00,
2013-05-17 15:50:00,81.0,60.0,29.96,SE,130,16.0,23.0,49,0.00,,,0.00,,2013-05-17 20:50:00,
2013-05-17 15:58:00,82.0,60.0,29.95,SSE,147,14.0,21.0,48,0.00,,,0.00,,2013-05-17 20:58:00,
2013-05-17 16:07:00,79.0,60.0,29.95,SE,145,14.0,23.0,52,0.00,,,0.00,,2013-05-17 21:07:00,
2013-05-17 16:17:00,79.0,60.0,29.95,SE,145,14.0,23.0,52,0.00,,,0.00,,2013-05-17 21:17:00,
2013-05-17 16:26:00,79.0,61.0,29.94,SSE,167,14.0,22.0,54,0.00,,,0.00,,2013-05-17 21:26:00,
2013-05-17 16:39:00,79.0,59.0,29.95,SE,130,16.0,25.0,50,0.00,,,0.00,,2013-05-17 21:39:00,
2013-05-17 16:49:00,79.0,59.0,29.95,SE,130,16.0,25.0,50,0.00,,,0.00,,2013-05-17 21:49:00,
2013-05-17 16:57:00,79.0,59.0,29.95,ESE,115,14.0,22.0,51,0.00,,,0.00,,2013-05-17 21:57:00,
2013-05-17 17:07:00,81.0,55.0,29.95,SE,139,13.0,24.0,41,0.00,,,0.00,,2013-05-17 22:07:00,
2013-05-17 17:17:00,81.0,55.0,29.95,SE,139,13.0,24.0,41,0.00,,,0.00,,2013-05-17 22:17:00,
2013-05-17 17:28:00,81.0,54.0,29.95,SSE,156,14.0,24.0,39,0.00,,,0.00,,2013-05-17 22:28:00,
2013-05-17 17:38:00,81.0,54.0,29.94,SSW,196,9.0,16.0,40,0.00,,,0.00,,2013-05-17 22:38:00,
2013-05-17 17:47:00,81.0,54.0,29.94,SSW,196,9.0,16.0,40,0.00,,,0.00,,2013-05-17 22:47:00,
2013-05-17 17:54:00,80.0,54.0,29.95,SE,126,11.0,18.0,41,0.00,,,0.00,,2013-05-17 22:54:00,
2013-05-17 18:04:00,79.0,55.0,29.95,SSE,161,12.0,17.0,43,0.00,,,0.00,,2013-05-17 23:04:00,
2013-05-17 18:13:00,79.0,55.0,29.95,SSE,161,12.0,17.0,43,0.00,,,0.00,,2013-05-17 23:13:00,
2013-05-17 18:23:00,79.0,57.0,29.95,SE,146,12.0,17.0,47,0.00,,,0.00,,2013-05-17 23:23:00,
2013-05-17 18:37:00,78.0,58.0,29.95,SE,130,9.0,17.0,50,0.00,,,0.00,,2013-05-17 23:37:00,
2013-05-17 18:47:00,78.0,58.0,29.95,SE,130,9.0,17.0,50,0.00,,,0.00,,2013-05-17 23:47:00,
2013-05-17 18:54:00,78.0,58.0,29.95,SE,128,10.0,16.0,50,0.00,,,0.00,,2013-05-17 23:54:00,
2013-05-17 19:02:00,78.0,59.0,29.95,SE,126,9.0,14.0,52,0.00,,,0.00,,2013-05-18 00:02:00,
2013-05-17 19:14:00,78.0,59.0,29.95,SE,126,9.0,14.0,52,0.00,,,0.00,,2013-05-18 00:14:00,
2013-05-17 19:22:00,78.0,59.0,29.96,ESE,111,12.0,15.0,53,0.00,,,0.00,,2013-05-18 00:22:00,
2013-05-17 19:33:00,74.0,64.0,29.96,ENE,65,13.0,28.0,71,0.00,,,0.00,,2013-05-18 00:33:00,
2013-05-17 19:44:00,74.0,64.0,29.96,ENE,65,13.0,28.0,71,0.00,,,0.00,,2013-05-18 00:44:00,
2013-05-17 19:54:00,72.0,64.0,29.96,ENE,66,16.0,26.0,75,0.00,,,0.00,,2013-05-18 00:54:00,
2013-05-17 20:03:00,72.0,65.0,29.97,ENE,72,16.0,25.0,78,0.00,,,0.00,,2013-05-18 01:03:00,
2013-05-17 20:13:00,72.0,65.0,29.97,ENE,72,16.0,25.0,78,0.00,,,0.00,,2013-05-18 01:13:00,
2013-05-17 20:24:00,72.0,65.0,29.97,ENE,66,16.0,23.0,78,0.00,,,0.00,,2013-05-18 01:24:00,
2013-05-17 20:32:00,71.0,64.0,29.97,East,83,14.0,21.0,79,0.00,,,0.00,,2013-05-18 01:32:00,
2013-05-17 20:42:00,71.0,64.0,29.97,East,83,14.0,21.0,79,0.00,,,0.00,,2013-05-18 01:42:00,
2013-05-17 20:52:00,71.0,64.0,29.98,East,82,16.0,24.0,78,0.00,,,0.00,,2013-05-18 01:52:00,
2013-05-17 21:02:00,71.0,64.0,29.99,ESE,106,16.0,24.0,79,0.00,,,0.00,,2013-05-18 02:02:00,
2013-05-17 21:12:00,71.0,64.0,29.99,ESE,106,16.0,24.0,79,0.00,,,0.00,,2013-05-18 02:12:00,
2013-05-17 21:22:00,71.0,65.0,29.99,ESE,108,17.0,22.0,80,0.00,,,0.00,,2013-05-18 02:22:00,
2013-05-17 21:31:00,70.0,64.0,30.00,ESE,113,14.0,24.0,82,0.00,,,0.00,,2013-05-18 02:31:00,
2013-05-17 21:42:00,70.0,64.0,30.00,ESE,113,14.0,24.0,82,0.00,,,0.00,,2013-05-18 02:42:00,
2013-05-17 21:53:00,70.0,64.0,30.01,ESE,108,12.0,16.0,82,0.00,,,0.00,,2013-05-18 02:53:00,
2013-05-17 22:02:00,69.0,63.0,30.01,ESE,112,14.0,22.0,82,0.00,,,0.00,,2013-05-18 03:02:00,
2013-05-17 22:12:00,69.0,63.0,30.01,ESE,112,14.0,22.0,82,0.00,,,0.00,,2013-05-18 03:12:00,
2013-05-17 22:22:00,69.0,63.0,30.01,East,95,14.0,23.0,82,0.00,,,0.00,,2013-05-18 03:22:00,
2013-05-17 22:33:00,68.0,63.0,30.01,East,99,10.0,18.0,84,0.00,,,0.00,,2013-05-18 03:33:00,
2013-05-17 22:43:00,68.0,63.0,30.01,East,99,10.0,18.0,84,0.00,,,0.00,,2013-05-18 03:43:00,
2013-05-17 22:53:00,68.0,64.0,30.01,East,100,10.0,17.0,86,0.00,,,0.00,,2013-05-18 03:53:00,
2013-05-17 23:02:00,67.0,63.0,30.01,ESE,107,8.0,13.0,88,0.00,,,0.00,,2013-05-18 04:02:00,
2013-05-17 23:12:00,67.0,63.0,30.01,ESE,107,8.0,13.0,88,0.00,,,0.00,,2013-05-18 04:12:00,
2013-05-17 23:23:00,67.0,63.0,30.01,ESE,108,9.0,14.0,88,0.00,,,0.00,,2013-05-18 04:23:00,
2013-05-17 23:33:00,66.0,63.0,30.01,ESE,117,8.0,10.0,90,0.00,,,0.00,,2013-05-18 04:33:00,
2013-05-17 23:42:00,66.0,63.0,30.01,ESE,117,8.0,10.0,90,0.00,,,0.00,,2013-05-18 04:42:00,
2013-05-17 23:52:00,66.0,63.0,30.01,ESE,109,9.0,13.0,90,0.00,,,0.00,,2013-05-18 04:52:00,